Map

Track Data

SID SEASON NUMBER BASIN SUBBASIN NAME ISO_TIME NATURE LAT LON WMO_WIND WMO_PRES WMO_AGENCY TRACK_TYPE DIST2LAND LANDFALL IFLAG USA_AGENCY USA_ATCF_ID USA_LAT USA_LON USA_RECORD USA_STATUS USA_WIND USA_PRES USA_SSHS USA_R34_NE USA_R34_SE USA_R34_SW USA_R34_NW USA_R50_NE USA_R50_SE USA_R50_SW USA_R50_NW USA_R64_NE USA_R64_SE USA_R64_SW USA_R64_NW USA_POCI USA_ROCI USA_RMW USA_EYE TOKYO_LAT TOKYO_LON TOKYO_GRADE TOKYO_WIND TOKYO_PRES TOKYO_R50_DIR TOKYO_R50_LONG TOKYO_R50_SHORT TOKYO_R30_DIR TOKYO_R30_LONG TOKYO_R30_SHORT TOKYO_LAND CMA_LAT CMA_LON CMA_CAT CMA_WIND CMA_PRES HKO_LAT HKO_LON HKO_CAT HKO_WIND HKO_PRES NEWDELHI_LAT NEWDELHI_LON NEWDELHI_GRADE NEWDELHI_WIND NEWDELHI_PRES NEWDELHI_CI NEWDELHI_DP NEWDELHI_POCI REUNION_LAT REUNION_LON REUNION_TYPE REUNION_WIND REUNION_PRES REUNION_TNUM REUNION_CI REUNION_RMW REUNION_R34_NE REUNION_R34_SE REUNION_R34_SW REUNION_R34_NW REUNION_R50_NE REUNION_R50_SE REUNION_R50_SW REUNION_R50_NW REUNION_R64_NE REUNION_R64_SE REUNION_R64_SW REUNION_R64_NW BOM_LAT BOM_LON BOM_TYPE BOM_WIND BOM_PRES BOM_TNUM BOM_CI BOM_RMW BOM_R34_NE BOM_R34_SE BOM_R34_SW BOM_R34_NW BOM_R50_NE BOM_R50_SE BOM_R50_SW BOM_R50_NW BOM_R64_NE BOM_R64_SE BOM_R64_SW BOM_R64_NW BOM_ROCI BOM_POCI BOM_EYE BOM_POS_METHOD BOM_PRES_METHOD NADI_LAT NADI_LON NADI_CAT NADI_WIND NADI_PRES WELLINGTON_LAT WELLINGTON_LON WELLINGTON_WIND WELLINGTON_PRES DS824_LAT DS824_LON DS824_STAGE DS824_WIND DS824_PRES TD9636_LAT TD9636_LON TD9636_STAGE TD9636_WIND TD9636_PRES TD9635_LAT TD9635_LON TD9635_WIND TD9635_PRES TD9635_ROCI NEUMANN_LAT NEUMANN_LON NEUMANN_CLASS NEUMANN_WIND NEUMANN_PRES MLC_LAT MLC_LON MLC_CLASS MLC_WIND MLC_PRES USA_GUST BOM_GUST BOM_GUST_PER REUNION_GUST REUNION_GUST_PER USA_SEAHGT USA_SEARAD_NE USA_SEARAD_SE USA_SEARAD_SW USA_SEARAD_NW STORM_SPEED STORM_DIR
1944295S07054 1945 73 SI MM NOT_NAMED 1944-10-21 06:00:00 NR -6.80000 54.4000 reunion main 815 787 _____O________ -1 -6.80000 54.4000 99 9.90000 13 287
1944295S07054 1945 73 SI MM NOT_NAMED 1944-10-21 09:00:00 NR -6.61040 53.7900 main 789 765 _____P________ -1 -6.61040 53.7900 99 13 287
1944295S07054 1945 73 SI MM NOT_NAMED 1944-10-21 12:00:00 NR -6.42157 53.1858 main 768 749 _____P________ -1 -6.42157 53.1858 99 12 288
1944295S07054 1945 73 SI MM NOT_NAMED 1944-10-21 15:00:00 NR -6.23519 52.5932 main 753 734 _____P________ -1 -6.23519 52.5932 99 12 288
1944295S07054 1945 73 SI MM NOT_NAMED 1944-10-21 18:00:00 NR -6.05297 52.0177 main 734 732 _____P________ -1 -6.05297 52.0177 99 12 288
1944295S07054 1945 73 SI MM NOT_NAMED 1944-10-21 21:00:00 NR -5.87663 51.4651 main 735 731 _____P________ -1 -5.87663 51.4651 99 11 288
1944295S07054 1945 73 SI MM NOT_NAMED 1944-10-22 00:00:00 NR -5.70788 50.9410 main 738 735 _____P________ -1 -5.70788 50.9410 99 11 288
1944295S07054 1945 73 SI MM NOT_NAMED 1944-10-22 03:00:00 NR -5.54843 50.4508 main 751 745 _____P________ -1 -5.54843 50.4508 99 10 288
1944295S07054 1945 73 SI MM NOT_NAMED 1944-10-22 06:00:00 NR -5.40000 50.0000 reunion main 754 753 _____O________ -1 -5.40000 50.0000 99 9.90000 9 288
1944295S07054 1945 73 SI MM NOT_NAMED 1944-10-22 09:00:00 NR -5.26367 49.5922 main 762 762 _____P________ -1 -5.26367 49.5922 99 8 289
1944295S07054 1945 73 SI MM NOT_NAMED 1944-10-22 12:00:00 NR -5.13812 49.2234 main 784 784 _____P________ -1 -5.13812 49.2234 99 7 289
1944295S07054 1945 73 SI MM NOT_NAMED 1944-10-22 15:00:00 NR -5.02136 48.8876 main 796 796 _____P________ -1 -5.02136 48.8876 99 7 289
1944295S07054 1945 73 SI MM NOT_NAMED 1944-10-22 18:00:00 NR -4.91143 48.5790 main 809 805 _____P________ -1 -4.91143 48.5790 99 6 290
1944295S07054 1945 73 SI MM NOT_NAMED 1944-10-22 21:00:00 NR -4.80633 48.2917 main 805 773 _____P________ -1 -4.80633 48.2917 99 6 290
1944295S07054 1945 73 SI MM NOT_NAMED 1944-10-23 00:00:00 NR -4.70406 48.0200 main 773 749 _____P________ -1 -4.70406 48.0200 99 6 291
1944295S07054 1945 73 SI MM NOT_NAMED 1944-10-23 03:00:00 NR -4.60262 47.7580 main 749 718 _____P________ -1 -4.60262 47.7580 99 6 291
1944295S07054 1945 73 SI MM NOT_NAMED 1944-10-23 06:00:00 NR -4.50000 47.5000 reunion main 718 686 _____O________ -1 -4.50000 47.5000 99 9.90000 6 291
1944295S07054 1945 73 SI MM NOT_NAMED 1944-10-23 09:00:00 NR -4.39501 47.2210 main 686 662 _____P________ -1 -4.39501 47.2210 99 6 291
1944295S07054 1945 73 SI MM NOT_NAMED 1944-10-23 12:00:00 NR -4.29101 46.9505 main 662 628 _____P________ -1 -4.29101 46.9505 99 6 291
1944295S07054 1945 73 SI MM NOT_NAMED 1944-10-23 15:00:00 NR -4.18642 46.6868 main 628 595 _____P________ -1 -4.18642 46.6868 99 6 292
1944295S07054 1945 73 SI MM NOT_NAMED 1944-10-23 18:00:00 NR -4.07970 46.4278 main 595 571 _____P________ -1 -4.07970 46.4278 99 6 293
1944295S07054 1945 73 SI MM NOT_NAMED 1944-10-23 21:00:00 NR -3.96926 46.1716 main 571 537 _____P________ -1 -3.96926 46.1716 99 6 294
1944295S07054 1945 73 SI MM NOT_NAMED 1944-10-24 00:00:00 NR -3.85355 45.9161 main 537 507 _____P________ -1 -3.85355 45.9161 99 6 295
1944295S07054 1945 73 SI MM NOT_NAMED 1944-10-24 03:00:00 NR -3.73099 45.6596 main 507 473 _____P________ -1 -3.73099 45.6596 99 6 296
1944295S07054 1945 73 SI MM NOT_NAMED 1944-10-24 06:00:00 NR -3.60000 45.4000 reunion main 473 439 _____O________ -1 -3.60000 45.4000 99 9.90000 6 296
1944295S07054 1945 73 SI MM NOT_NAMED 1944-10-24 09:00:00 NR -3.46754 45.1239 main 439 408 _____P________ -1 -3.46754 45.1239 99 6 296
1944295S07054 1945 73 SI MM NOT_NAMED 1944-10-24 12:00:00 NR -3.32807 44.8450 main 399 374 _____P________ -1 -3.32807 44.8450 99 6 297
1944295S07054 1945 73 SI MM NOT_NAMED 1944-10-24 15:00:00 NR -3.18079 44.5649 main 374 334 _____P________ -1 -3.18079 44.5649 99 6 298
1944295S07054 1945 73 SI MM NOT_NAMED 1944-10-24 18:00:00 NR -3.02493 44.2850 main 334 301 _____P________ -1 -3.02493 44.2850 99 6 300
1944295S07054 1945 73 SI MM NOT_NAMED 1944-10-24 21:00:00 NR -2.85970 44.0070 main 301 261 _____P________ -1 -2.85970 44.0070 99 7 302
1944295S07054 1945 73 SI MM NOT_NAMED 1944-10-25 00:00:00 NR -2.68432 43.7325 main 261 230 _____P________ -1 -2.68432 43.7325 99 7 304
1944295S07054 1945 73 SI MM NOT_NAMED 1944-10-25 03:00:00 NR -2.49802 43.4630 main 230 190 _____P________ -1 -2.49802 43.4630 99 7 306
1944295S07054 1945 73 SI MM NOT_NAMED 1944-10-25 06:00:00 NR -2.30000 43.2000 reunion main 190 158 _____O________ -1 -2.30000 43.2000 99 9.90000 7 308
1944295S07054 1945 73 SI MM NOT_NAMED 1944-10-25 09:00:00 NR -2.08988 42.9447 main 150 118 _____P________ -1 -2.08988 42.9447 99 7 311
1944295S07054 1945 73 SI MM NOT_NAMED 1944-10-25 12:00:00 NR -1.86882 42.6966 main 118 87 _____P________ -1 -1.86882 42.6966 99 7 313
1944295S07054 1945 73 SI MM NOT_NAMED 1944-10-25 15:00:00 NR -1.63836 42.4545 main 80 40 _____P________ -1 -1.63836 42.4545 99 7 314
1944295S07054 1945 73 SI MM NOT_NAMED 1944-10-25 18:00:00 NR -1.40008 42.2175 main 40 11 _____P________ -1 -1.40008 42.2175 99 7 316
1944295S07054 1945 73 SI MM NOT_NAMED 1944-10-25 21:00:00 NR -1.15554 41.9846 main 11 0 _____P________ -1 -1.15554 41.9846 99 7 317
1944295S07054 1945 73 SI MM NOT_NAMED 1944-10-26 00:00:00 NR -0.906289 41.7547 main 0 0 _____P________ -1 -0.906289 41.7547 99 7 318
1944295S07054 1945 73 SI MM NOT_NAMED 1944-10-26 03:00:00 NR -0.653918 41.5268 main 0 0 _____P________ -1 -0.653918 41.5268 99 7 318
1944295S07054 1945 73 SI MM NOT_NAMED 1944-10-26 06:00:00 NR -0.400000 41.3000 reunion main 0 _____O________ -1 -0.400000 41.3000 99 9.90000 7 318

About IBTrACS Database

This database is a web-friendly format of International Best Track Archive for Climate Stewardship (IBTrACS), a global best track data archive curated by NOAA dating back to 1842.

Updated: 2021-10-08